Time;durP1;ratioP1;P1;durP2;ratioP2;P2;SDS_P1;SDS_P2;PMS_P1;PMS_P2;Temp;Humidity;BMP_temperature;BMP_pressure;BME280_temperature;BME280_humidity;BME280_pressure;Samples;Min_cycle;Max_cycle;Signal;HPM_P1;HPM_P2
2023/04/13 00:00:07;;;;;;;;;;;;;;;;;;4348188;33;20435;-78
2023/04/13 00:02:32;;;;;;;4.22;1.80;;;;;;;;;;4333567;33;20328;-79
2023/04/13 00:04:59;;;;;;;;;;;;;;;;;;4348870;33;20051;-77
2023/04/13 00:07:26;;;;;;;2.08;1.42;;;;;;;;;;4346838;33;20050;-78
2023/04/13 00:09:52;;;;;;;3.78;1.50;;;;;;;;;;4335180;33;20393;-78
2023/04/13 00:12:20;;;;;;;;;;;;;;;;;;4348323;33;20027;-76
2023/04/13 00:14:45;;;;;;;4.70;1.50;;;;;;;;;;4349281;33;19946;-76
2023/04/13 00:17:10;;;;;;;;;;;;;;;;;;4347559;33;20032;-76
2023/04/13 00:19:35;;;;;;;1.92;1.15;;;;;;;;;;4347678;33;19943;-77
2023/04/13 00:22:01;;;;;;;3.03;1.27;;;;;;;;;;4345557;33;20074;-77
2023/04/13 00:24:26;;;;;;;;;;;;;;;;;;4346704;33;20070;-77
2023/04/13 00:26:53;;;;;;;2.05;1.52;;;;;;;;;;4348155;33;20002;-77
2023/04/13 00:29:18;;;;;;;1.23;0.80;;;;;;;;;;4347131;33;20091;-76
2023/04/13 00:31:43;;;;;;;;;;;;;;;;;;4348343;33;20144;-76
2023/04/13 00:34:08;;;;;;;1.23;0.85;;;;;;;;;;4346414;33;19939;-76
2023/04/13 00:36:33;;;;;;;;;;;;;;;;;;4346981;33;20140;-76
2023/04/13 00:38:59;;;;;;;2.58;0.80;;;;;;;;;;4334122;33;19942;-77
2023/04/13 00:41:24;;;;;;;1.98;1.02;;;;;;;;;;4347079;33;20455;-76
2023/04/13 00:43:51;;;;;;;;;;;;;;;;;;4347004;33;20401;-77
2023/04/13 00:46:17;;;;;;;3.33;1.23;;;;;;;;;;4346514;33;19978;-76
2023/04/13 00:48:44;;;;;;;;;;;;;;;;;;4348100;33;20427;-77
2023/04/13 00:51:09;;;;;;;;;;;;;;;;;;4349937;33;19938;-78
2023/04/13 00:53:34;;;;;;;2.08;1.27;;;;;;;;;;4346479;33;19934;-77
2023/04/13 00:55:59;;;;;;;;;;;;;;;;;;4357735;32;20132;-78
2023/04/13 00:58:26;;;;;;;3.03;1.15;;;;;;;;;;4345414;33;19970;-78
2023/04/13 01:00:51;;;;;;;3.00;1.25;;;;;;;;;;4357105;32;20374;-78
2023/04/13 01:03:16;;;;;;;;;;;;;;;;;;4346623;33;20027;-77
2023/04/13 01:05:49;;;;;;;3.62;1.83;;;;;;;;;;4345850;33;19942;-76
2023/04/13 01:08:28;;;;;;;3.28;1.90;;;;;;;;;;4357039;32;20035;-76
2023/04/13 01:10:59;;;;;;;5.90;2.50;;;;;;;;;;4357969;32;20074;-75
2023/04/13 01:13:28;;;;;;;7.90;2.90;;;;;;;;;;4347717;33;20024;-76
2023/04/13 01:16:06;;;;;;;3.97;2.70;;;;;;;;;;4360502;32;20093;-77
2023/04/13 01:18:33;;;;;;;5.70;3.10;;;;;;;;;;4337875;33;20027;-77
2023/04/13 01:20:59;;;;;;;13.55;4.75;;;;;;;;;;4339364;33;20032;-77
2023/04/13 01:23:24;;;;;;;;;;;;;;;;;;4347173;33;20374;-79
2023/04/13 01:25:50;;;;;;;5.45;2.87;;;;;;;;;;4346274;33;19958;-77
2023/04/13 01:28:18;;;;;;;10.02;2.97;;;;;;;;;;4346532;32;20059;-77
2023/04/13 01:30:44;;;;;;;8.00;2.83;;;;;;;;;;4346485;33;20058;-78
2023/04/13 01:33:10;;;;;;;7.00;2.17;;;;;;;;;;4345129;33;20101;-78
2023/04/13 01:35:35;;;;;;;;;;;;;;;;;;4347982;33;20079;-79
2023/04/13 01:38:01;;;;;;;4.10;2.00;;;;;;;;;;4350225;33;19982;-79
2023/04/13 01:40:26;;;;;;;;;;;;;;;;;;4351343;33;20096;-79
2023/04/13 01:42:51;;;;;;;7.37;1.87;;;;;;;;;;4354094;33;19966;-80
2023/04/13 01:45:16;;;;;;;;;;;;;;;;;;4354409;33;20048;-79
2023/04/13 01:47:46;;;;;;;3.92;1.67;;;;;;;;;;4351483;33;19973;-81
2023/04/13 01:50:37;;;;;;;5.93;1.73;;;;;;;;;;4357651;33;20070;-81
2023/04/13 01:53:10;;;;;;;5.12;1.50;;;;;;;;;;4356544;33;20044;-83
2023/04/13 01:55:37;;;;;;;8.10;1.83;;;;;;;;;;4361865;33;20115;-83
2023/04/13 01:58:03;;;;;;;7.82;1.80;;;;;;;;;;4364489;33;20035;-83
2023/04/13 02:00:34;;;;;;;4.53;2.00;;;;;;;;;;4364682;33;20012;-84
2023/04/13 02:03:00;;;;;;;5.35;1.85;;;;;;;;;;4365095;33;20011;-84
2023/04/13 02:05:26;;;;;;;;;;;;;;;;;;4365078;32;20102;-84
2023/04/13 02:07:51;;;;;;;6.25;1.75;;;;;;;;;;4359589;33;19972;-84
2023/04/13 02:10:16;;;;;;;;;;;;;;;;;;4364096;33;20042;-84
2023/04/13 02:12:41;;;;;;;7.07;2.25;;;;;;;;;;4353954;33;19919;-83
2023/04/13 02:15:07;;;;;;;;;;;;;;;;;;4365857;33;20170;-84
2023/04/13 02:17:32;;;;;;;4.72;1.80;;;;;;;;;;4352180;33;19924;-82
2023/04/13 02:19:57;;;;;;;;;;;;;;;;;;4364893;33;20027;-80
2023/04/13 02:22:22;;;;;;;13.93;1.90;;;;;;;;;;4362349;32;19942;-79
2023/04/13 02:24:48;;;;;;;;;;;;;;;;;;4357645;33;20109;-80
2023/04/13 02:27:14;;;;;;;9.95;2.03;;;;;;;;;;4350002;33;19924;-81
2023/04/13 02:29:39;;;;;;;;;;;;;;;;;;4350504;33;20042;-79
2023/04/13 02:32:05;;;;;;;10.10;2.03;;;;;;;;;;4350067;32;20280;-81
2023/04/13 02:34:30;;;;;;;;;;;;;;;;;;4350514;32;20038;-81
2023/04/13 02:36:56;;;;;;;9.95;3.35;;;;;;;;;;4348053;33;20000;-81
2023/04/13 02:39:21;;;;;;;;;;;;;;;;;;4358573;33;20058;-82
2023/04/13 02:41:47;;;;;;;12.82;2.22;;;;;;;;;;4356894;33;19980;-81
2023/04/13 02:44:12;;;;;;;11.75;2.17;;;;;;;;;;4354361;33;20059;-82
2023/04/13 02:46:37;;;;;;;;;;;;;;;;;;4354250;33;20115;-81
2023/04/13 02:49:03;;;;;;;9.27;2.55;;;;;;;;;;4369887;32;19935;-83
2023/04/13 02:51:28;;;;;;;;;;;;;;;;;;4361256;33;20066;-81
2023/04/13 02:53:54;;;;;;;11.10;2.12;;;;;;;;;;4383283;32;19939;-81
2023/04/13 02:56:21;;;;;;;8.80;2.47;;;;;;;;;;4366865;33;20024;-81
2023/04/13 02:58:46;;;;;;;12.00;2.72;;;;;;;;;;4353118;33;20063;-81
2023/04/13 03:01:12;;;;;;;;;;;;;;;;;;4350641;33;20474;-80
2023/04/13 03:03:37;;;;;;;13.25;2.53;;;;;;;;;;4350417;32;19986;-80
2023/04/13 03:06:02;;;;;;;;;;;;;;;;;;4353162;33;20057;-79
2023/04/13 03:08:27;;;;;;;10.52;2.33;;;;;;;;;;4353577;32;19934;-79
2023/04/13 03:10:53;;;;;;;;;;;;;;;;;;4357652;33;20175;-80
2023/04/13 03:13:18;;;;;;;11.35;3.37;;;;;;;;;;4360125;32;19947;-81
2023/04/13 03:15:44;;;;;;;;;;;;;;;;;;4370150;32;20429;-81
2023/04/13 03:18:09;;;;;;;10.27;3.80;;;;;;;;;;4351608;32;20328;-80
2023/04/13 03:20:34;;;;;;;;;;;;;;;;;;4355080;33;20019;-81
2023/04/13 03:23:00;;;;;;;10.93;2.83;;;;;;;;;;4381347;32;19939;-81
2023/04/13 03:25:25;;;;;;;8.43;2.92;;;;;;;;;;4366462;32;20023;-80
2023/04/13 03:27:50;;;;;;;;;;;;;;;;;;4354781;32;20523;-78
2023/04/13 03:30:17;;;;;;;12.65;3.20;;;;;;;;;;4349588;33;19982;-81
2023/04/13 03:32:42;;;;;;;12.63;4.62;;;;;;;;;;4361796;32;20520;-80
2023/04/13 03:35:07;;;;;;;;;;;;;;;;;;4335627;32;20082;-80
2023/04/13 03:37:39;;;;;;;16.55;2.85;;;;;;;;;;4333854;33;19955;-80
2023/04/13 03:40:04;;;;;;;12.27;2.78;;;;;;;;;;4345084;33;20201;-80
2023/04/13 03:42:30;;;;;;;;;;;;;;;;;;4335342;33;20409;-79
2023/04/13 03:44:56;;;;;;;6.65;2.45;;;;;;;;;;4337271;33;19966;-81
2023/04/13 03:47:21;;;;;;;;;;;;;;;;;;4348076;32;20024;-81
2023/04/13 03:49:46;;;;;;;9.90;2.25;;;;;;;;;;4345957;33;19973;-80
2023/04/13 03:52:11;;;;;;;;;;;;;;;;;;4358675;32;20423;-80
2023/04/13 03:54:36;;;;;;;10.25;2.53;;;;;;;;;;4346273;33;20339;-80
2023/04/13 03:57:03;;;;;;;;;;;;;;;;;;4348226;32;20144;-79
2023/04/13 03:59:28;;;;;;;8.93;2.50;;;;;;;;;;4347845;33;19939;-80
2023/04/13 04:01:53;;;;;;;;;;;;;;;;;;4359568;32;20028;-80
2023/04/13 04:04:18;;;;;;;10.93;2.05;;;;;;;;;;4348102;32;20255;-79
2023/04/13 04:06:44;;;;;;;;;;;;;;;;;;4359246;32;20533;-79
2023/04/13 04:09:09;;;;;;;10.15;2.10;;;;;;;;;;4346709;33;19949;-80
2023/04/13 04:11:34;;;;;;;;;;;;;;;;;;4348175;32;20066;-80
2023/04/13 04:14:00;;;;;;;18.00;2.40;;;;;;;;;;4340176;33;19942;-81
2023/04/13 04:16:25;;;;;;;;;;;;;;;;;;4340195;33;20083;-80
2023/04/13 04:18:50;;;;;;;14.23;2.53;;;;;;;;;;4344325;32;19981;-80
2023/04/13 04:21:15;;;;;;;7.03;2.30;;;;;;;;;;4342183;33;20082;-80
2023/04/13 04:23:40;;;;;;;;;;;;;;;;;;4347460;33;20099;-79
2023/04/13 04:26:06;;;;;;;9.07;2.35;;;;;;;;;;4348294;32;19939;-80
2023/04/13 04:28:37;;;;;;;;;;;;;;;;;;4359264;32;20136;-79
2023/04/13 04:31:03;;;;;;;4.85;1.52;;;;;;;;;;4333354;32;20301;-79
2023/04/13 04:33:29;;;;;;;6.97;1.87;;;;;;;;;;4333871;33;20039;-78
2023/04/13 04:35:54;;;;;;;;;;;;;;;;;;4345981;33;20401;-79
2023/04/13 04:38:23;;;;;;;10.43;2.20;;;;;;;;;;4355829;33;19939;-89
2023/04/13 04:40:49;;;;;;;10.15;1.95;;;;;;;;;;4363521;32;20024;-82
2023/04/13 04:43:14;;;;;;;;;;;;;;;;;;4332291;33;20431;-78
2023/04/13 04:45:44;;;;;;;11.10;2.10;;;;;;;;;;4332487;33;19935;-78
2023/04/13 04:48:10;;;;;;;9.73;2.12;;;;;;;;;;4354863;32;20148;-77
2023/04/13 04:50:43;;;;;;;8.02;2.15;;;;;;;;;;4340613;33;20050;-76
2023/04/13 04:53:08;;;;;;;11.98;2.58;;;;;;;;;;4346142;32;20035;-76
2023/04/13 04:55:34;;;;;;;;;;;;;;;;;;4346625;32;20028;-76
2023/04/13 04:57:59;;;;;;;9.48;2.50;;;;;;;;;;4346578;33;19953;-75
2023/04/13 05:00:25;;;;;;;10.32;2.58;;;;;;;;;;4357303;33;20027;-75
2023/04/13 05:02:50;;;;;;;6.28;1.77;;;;;;;;;;4346299;32;20053;-76
2023/04/13 05:05:15;;;;;;;;;;;;;;;;;;4357625;32;20063;-75
2023/04/13 05:07:41;;;;;;;6.40;2.30;;;;;;;;;;4336687;33;19954;-74
2023/04/13 05:10:06;;;;;;;;;;;;;;;;;;4351746;33;20162;-75
2023/04/13 05:12:31;;;;;;;9.93;1.92;;;;;;;;;;4346246;33;20260;-75
2023/04/13 05:14:56;;;;;;;;;;;;;;;;;;4346231;33;20469;-76
2023/04/13 05:17:24;;;;;;;8.75;2.03;;;;;;;;;;4346269;33;19998;-76
2023/04/13 05:19:50;;;;;;;7.62;2.85;;;;;;;;;;4357174;32;20124;-76
2023/04/13 05:22:15;;;;;;;;;;;;;;;;;;4346479;32;20443;-77
2023/04/13 05:24:40;;;;;;;7.76;3.22;;;;;;;;;;4347613;33;20022;-77
2023/04/13 05:27:08;;;;;;;;;;;;;;;;;;4349085;33;20051;-77
2023/04/13 05:29:34;;;;;;;9.05;2.33;;;;;;;;;;4347686;32;19998;-76
2023/04/13 05:31:59;;;;;;;;;;;;;;;;;;4359255;32;20035;-75
2023/04/13 05:34:24;;;;;;;9.85;1.85;;;;;;;;;;4331106;33;20400;-75
2023/04/13 05:36:49;;;;;;;6.22;1.80;;;;;;;;;;4332445;33;20058;-76
2023/04/13 05:39:15;;;;;;;;;;;;;;;;;;4331446;33;20369;-75
2023/04/13 05:41:40;;;;;;;6.78;1.60;;;;;;;;;;4331836;33;19982;-77
2023/04/13 05:44:05;;;;;;;;;;;;;;;;;;4330900;33;20582;-76
2023/04/13 05:46:30;;;;;;;6.53;1.80;;;;;;;;;;4330920;33;20222;-76
2023/04/13 05:48:57;;;;;;;;;;;;;;;;;;4339238;33;20076;-76
2023/04/13 05:51:22;;;;;;;8.68;2.78;;;;;;;;;;4347155;33;19977;-76
2023/04/13 05:53:47;;;;;;;;;;;;;;;;;;4348336;33;20028;-79
2023/04/13 05:56:12;;;;;;;10.85;3.30;;;;;;;;;;4347054;33;19939;-78
2023/04/13 05:58:38;;;;;;;;;;;;;;;;;;4344595;33;20129;-76
2023/04/13 06:01:03;;;;;;;7.00;2.03;;;;;;;;;;4345301;33;19938;-78
2023/04/13 06:03:28;;;;;;;7.55;1.77;;;;;;;;;;4345363;33;20481;-78
2023/04/13 06:05:53;;;;;;;;;;;;;;;;;;4345818;33;20131;-77
2023/04/13 06:08:20;;;;;;;13.25;2.58;;;;;;;;;;4333940;33;19972;-78
2023/04/13 06:10:45;;;;;;;19.65;3.72;;;;;;;;;;4347693;33;20462;-78
2023/04/13 06:13:11;;;;;;;;;;;;;;;;;;4346023;33;20108;-77
2023/04/13 06:15:37;;;;;;;11.50;2.25;;;;;;;;;;4345640;33;19994;-78
2023/04/13 06:18:02;;;;;;;13.35;2.50;;;;;;;;;;4345414;33;20425;-79
2023/04/13 06:20:28;;;;;;;;;;;;;;;;;;4345703;33;20050;-79
2023/04/13 06:22:53;;;;;;;13.85;2.40;;;;;;;;;;4345457;33;19943;-78
2023/04/13 06:25:18;;;;;;;;;;;;;;;;;;4344716;33;20196;-78
2023/04/13 06:27:43;;;;;;;23.60;3.62;;;;;;;;;;4345770;33;20276;-77
2023/04/13 06:30:09;;;;;;;;;;;;;;;;;;4345024;33;20249;-77
2023/04/13 06:32:34;;;;;;;13.65;3.22;;;;;;;;;;4356557;32;20000;-77
2023/04/13 06:34:59;;;;;;;;;;;;;;;;;;4338416;33;20058;-76
2023/04/13 06:37:25;;;;;;;10.93;3.28;;;;;;;;;;4330691;33;19942;-76
2023/04/13 06:39:50;;;;;;;9.27;2.55;;;;;;;;;;4345128;33;20426;-76
2023/04/13 06:42:15;;;;;;;;;;;;;;;;;;4347276;33;20054;-77
2023/04/13 06:44:41;;;;;;;11.90;2.75;;;;;;;;;;4334767;33;19959;-76
2023/04/13 06:47:06;;;;;;;;;;;;;;;;;;4347619;33;20059;-77
2023/04/13 06:49:32;;;;;;;16.25;3.40;;;;;;;;;;4345239;33;19935;-77
2023/04/13 06:51:57;;;;;;;;;;;;;;;;;;4332167;33;20212;-76
2023/04/13 06:54:23;;;;;;;21.37;3.47;;;;;;;;;;4333304;33;20301;-78
2023/04/13 06:56:48;;;;;;;;;;;;;;;;;;4333419;33;20188;-77
2023/04/13 06:59:13;;;;;;;17.17;3.22;;;;;;;;;;4334253;33;19939;-78
2023/04/13 07:01:38;;;;;;;19.45;3.65;;;;;;;;;;4347677;33;20053;-79
2023/04/13 07:04:05;;;;;;;;;;;;;;;;;;4347659;33;20090;-77
2023/04/13 07:06:31;;;;;;;24.47;4.50;;;;;;;;;;4347480;33;20320;-77
2023/04/13 07:08:56;;;;;;;;;;;;;;;;;;4347686;33;20148;-78
2023/04/13 07:11:23;;;;;;;16.15;3.05;;;;;;;;;;4347295;33;19956;-79
2023/04/13 07:13:48;;;;;;;17.85;3.50;;;;;;;;;;4347311;32;20492;-79
2023/04/13 07:16:13;;;;;;;;;;;;;;;;;;4348897;33;20046;-79
2023/04/13 07:18:39;;;;;;;17.30;3.55;;;;;;;;;;4348464;33;19951;-79
2023/04/13 07:21:04;;;;;;;18.90;3.97;;;;;;;;;;4347983;33;20095;-81
2023/04/13 07:23:31;;;;;;;;;;;;;;;;;;4348082;33;20058;-80
2023/04/13 07:25:57;;;;;;;19.70;3.90;;;;;;;;;;4348025;33;19986;-81
2023/04/13 07:28:23;;;;;;;23.02;4.03;;;;;;;;;;4348120;33;20066;-80
2023/04/13 07:30:48;;;;;;;;;;;;;;;;;;4353422;33;20088;-81
2023/04/13 07:33:13;;;;;;;19.25;4.15;;;;;;;;;;4340832;33;19927;-82
2023/04/13 07:35:38;;;;;;;;;;;;;;;;;;4342378;33;20125;-82
2023/04/13 07:38:04;;;;;;;17.70;3.78;;;;;;;;;;4344766;33;19985;-81
2023/04/13 07:40:29;;;;;;;23.67;4.30;;;;;;;;;;4335701;33;20059;-81
2023/04/13 07:42:55;;;;;;;;;;;;;;;;;;4334397;33;20086;-80
2023/04/13 07:45:20;;;;;;;17.20;3.15;;;;;;;;;;4335259;33;19939;-80
2023/04/13 07:47:45;;;;;;;;;;;;;;;;;;4334774;33;20059;-81
2023/04/13 07:50:12;;;;;;;14.45;2.80;;;;;;;;;;4341728;33;19942;-81
2023/04/13 07:52:37;;;;;;;13.90;3.72;;;;;;;;;;4343531;33;20124;-80
2023/04/13 07:55:02;;;;;;;;;;;;;;;;;;4333597;33;20036;-81
2023/04/13 07:57:27;;;;;;;14.57;3.53;;;;;;;;;;4333283;33;19931;-82
2023/04/13 07:59:52;;;;;;;;;;;;;;;;;;4344281;33;20028;-81
2023/04/13 08:02:20;;;;;;;14.30;2.78;;;;;;;;;;4333023;33;19935;-81
2023/04/13 08:04:45;;;;;;;18.50;3.00;;;;;;;;;;4343778;33;20121;-80
2023/04/13 08:07:10;;;;;;;;;;;;;;;;;;4344524;33;20058;-80
2023/04/13 08:09:38;;;;;;;21.90;3.50;;;;;;;;;;4345480;33;19950;-79
2023/04/13 08:12:03;;;;;;;18.12;3.03;;;;;;;;;;4347860;33;20117;-80
2023/04/13 08:14:28;;;;;;;;;;;;;;;;;;4348268;32;20062;-81
2023/04/13 08:16:54;;;;;;;25.15;3.85;;;;;;;;;;4346971;32;19947;-80
2023/04/13 08:19:19;;;;;;;16.87;3.33;;;;;;;;;;4346490;32;20094;-81
2023/04/13 08:21:44;;;;;;;;;;;;;;;;;;4333093;33;20024;-80
2023/04/13 08:24:11;;;;;;;18.65;3.78;;;;;;;;;;4344524;32;20227;-80
2023/04/13 08:26:36;;;;;;;14.87;3.20;;;;;;;;;;4347151;33;20089;-81
2023/04/13 08:29:02;;;;;;;;;;;;;;;;;;4343741;33;20036;-80
2023/04/13 08:31:27;;;;;;;19.95;3.50;;;;;;;;;;4332837;33;19939;-83
2023/04/13 08:33:52;;;;;;;;;;;;;;;;;;4349188;32;20078;-81
2023/04/13 08:36:17;;;;;;;16.15;3.08;;;;;;;;;;4341198;33;19943;-79
2023/04/13 08:38:42;;;;;;;13.62;3.20;;;;;;;;;;4363418;32;20057;-81
2023/04/13 08:41:08;;;;;;;19.70;3.72;;;;;;;;;;4342211;33;20053;-82
2023/04/13 08:43:36;;;;;;;;;;;;;;;;;;4349561;32;20310;-81
2023/04/13 08:46:05;;;;;;;17.30;3.70;;;;;;;;;;4341336;32;19969;-81
2023/04/13 08:48:31;;;;;;;14.10;2.85;;;;;;;;;;4332810;33;20036;-81
2023/04/13 08:50:58;;;;;;;15.77;3.67;;;;;;;;;;4332031;33;20060;-81
2023/04/13 08:53:24;;;;;;;15.85;3.22;;;;;;;;;;4332694;33;20082;-83
2023/04/13 08:55:49;;;;;;;;;;;;;;;;;;4333444;33;20385;-82
2023/04/13 08:58:18;;;;;;;15.27;3.42;;;;;;;;;;4332260;33;19935;-81
2023/04/13 09:00:46;;;;;;;14.45;3.22;;;;;;;;;;4342595;33;20031;-80
2023/04/13 09:03:12;;;;;;;13.07;3.00;;;;;;;;;;4347989;33;20024;-81
2023/04/13 09:05:39;;;;;;;19.27;3.00;;;;;;;;;;4344794;33;20047;-80
2023/04/13 09:08:06;;;;;;;12.50;3.12;;;;;;;;;;4347063;33;20487;-80
2023/04/13 09:10:32;;;;;;;14.38;3.67;;;;;;;;;;4345990;33;20373;-81
2023/04/13 09:12:57;;;;;;;;;;;;;;;;;;4346818;33;20047;-81
2023/04/13 09:15:23;;;;;;;12.75;2.47;;;;;;;;;;4346135;33;19934;-80
2023/04/13 09:17:49;;;;;;;14.73;2.90;;;;;;;;;;4344331;33;20420;-79
2023/04/13 09:20:21;;;;;;;15.63;3.55;;;;;;;;;;4345711;33;20031;-79
2023/04/13 09:22:47;;;;;;;16.50;4.00;;;;;;;;;;4347533;33;20058;-80
2023/04/13 09:25:12;;;;;;;;;;;;;;;;;;4345963;33;20099;-80
2023/04/13 09:27:39;;;;;;;15.95;3.25;;;;;;;;;;4330314;33;20245;-80
2023/04/13 09:30:04;;;;;;;18.58;3.58;;;;;;;;;;4331776;33;20174;-78
2023/04/13 09:32:29;;;;;;;;;;;;;;;;;;4332560;33;20031;-79
2023/04/13 09:35:03;;;;;;;8.30;2.17;;;;;;;;;;4349146;33;19977;-80
2023/04/13 09:37:29;;;;;;;13.82;3.05;;;;;;;;;;4359093;33;20078;-80
2023/04/13 09:39:54;;;;;;;;;;;;;;;;;;4354428;33;20051;-78
2023/04/13 09:42:19;;;;;;;17.92;4.40;;;;;;;;;;4350623;33;20006;-79
2023/04/13 09:44:57;;;;;;;20.30;3.67;;;;;;;;;;4352400;33;20078;-80
2023/04/13 09:47:22;;;;;;;12.07;3.58;;;;;;;;;;4349294;33;20095;-79
2023/04/13 09:49:47;;;;;;;;;;;;;;;;;;4345642;33;20437;-79
2023/04/13 09:52:20;;;;;;;20.08;3.60;;;;;;;;;;4331745;33;19950;-79
2023/04/13 09:54:52;;;;;;;13.18;2.47;;;;;;;;;;4329696;33;20051;-81
2023/04/13 09:57:24;;;;;;;15.55;3.50;;;;;;;;;;4331935;33;20024;-80
2023/04/13 09:59:50;;;;;;;16.30;3.12;;;;;;;;;;4330373;33;20039;-80
2023/04/13 10:02:17;;;;;;;14.73;3.22;;;;;;;;;;4331409;33;20047;-81
2023/04/13 10:04:42;;;;;;;13.15;4.30;;;;;;;;;;4331487;33;20083;-80
2023/04/13 10:07:08;;;;;;;;;;;;;;;;;;4337407;33;20043;-80
2023/04/13 10:09:35;;;;;;;15.60;3.05;;;;;;;;;;4331741;33;19983;-80
2023/04/13 10:12:01;;;;;;;14.05;3.15;;;;;;;;;;4331813;33;20029;-81
2023/04/13 10:14:26;;;;;;;;;;;;;;;;;;4333427;33;20392;-79
2023/04/13 10:17:03;;;;;;;9.45;2.47;;;;;;;;;;4334870;33;19935;-81
2023/04/13 10:19:31;;;;;;;11.65;2.87;;;;;;;;;;4333479;33;20425;-81
2023/04/13 10:21:57;;;;;;;15.43;3.22;;;;;;;;;;4345593;33;20106;-81
2023/04/13 10:24:23;;;;;;;16.10;2.92;;;;;;;;;;4349231;33;20027;-80
2023/04/13 10:26:52;;;;;;;13.13;3.03;;;;;;;;;;4350340;33;20027;-79
2023/04/13 10:29:25;;;;;;;12.07;3.42;;;;;;;;;;4348471;33;20464;-79
2023/04/13 10:31:51;;;;;;;9.48;2.45;;;;;;;;;;4349501;33;20040;-80
2023/04/13 10:34:16;;;;;;;;;;;;;;;;;;4349733;33;20059;-79
2023/04/13 10:36:42;;;;;;;13.27;3.55;;;;;;;;;;4335810;33;19954;-80
2023/04/13 10:39:08;;;;;;;11.95;3.17;;;;;;;;;;4348535;33;20027;-81
2023/04/13 10:41:34;;;;;;;;;;;;;;;;;;4348474;33;20073;-78
2023/04/13 10:44:00;;;;;;;19.00;3.28;;;;;;;;;;4348290;33;20058;-80
2023/04/13 10:46:26;;;;;;;16.25;3.12;;;;;;;;;;4349443;33;20507;-80
2023/04/13 10:48:51;;;;;;;;;;;;;;;;;;4349608;32;20036;-80
2023/04/13 10:51:16;;;;;;;14.27;3.22;;;;;;;;;;4348162;32;19989;-79
2023/04/13 10:53:41;;;;;;;16.08;3.80;;;;;;;;;;4347620;33;20066;-78
2023/04/13 10:56:16;;;;;;;17.50;2.75;;;;;;;;;;4359268;32;20027;-79
2023/04/13 10:58:42;;;;;;;12.93;3.58;;;;;;;;;;4360166;32;20058;-81
2023/04/13 11:01:07;;;;;;;;;;;;;;;;;;4357844;33;20024;-81
2023/04/13 11:03:32;;;;;;;16.08;3.28;;;;;;;;;;4344904;33;20316;-78
2023/04/13 11:05:58;;;;;;;13.62;3.35;;;;;;;;;;4347074;32;20020;-82
2023/04/13 11:08:23;;;;;;;;;;;;;;;;;;4335840;33;20075;-80
2023/04/13 11:10:50;;;;;;;15.65;3.17;;;;;;;;;;4340430;33;19951;-83
2023/04/13 11:13:15;;;;;;;14.50;2.70;;;;;;;;;;4347190;33;20124;-83
2023/04/13 11:15:40;;;;;;;;;;;;;;;;;;4337794;33;20120;-82
2023/04/13 11:18:06;;;;;;;12.35;3.05;;;;;;;;;;4341482;33;20012;-81
2023/04/13 11:20:35;;;;;;;16.12;3.67;;;;;;;;;;4339120;33;20027;-80
2023/04/13 11:23:04;;;;;;;12.10;2.60;;;;;;;;;;4338679;33;20051;-83
2023/04/13 11:25:30;;;;;;;14.45;3.15;;;;;;;;;;4336453;33;20373;-81
2023/04/13 11:27:55;;;;;;;;;;;;;;;;;;4335198;33;20024;-82
2023/04/13 11:30:21;;;;;;;16.52;3.28;;;;;;;;;;4335344;33;19999;-81
2023/04/13 11:32:47;;;;;;;22.60;4.25;;;;;;;;;;4335808;33;20062;-81
2023/04/13 11:35:13;;;;;;;19.12;3.58;;;;;;;;;;4346435;33;20020;-80
2023/04/13 11:37:40;;;;;;;12.43;3.37;;;;;;;;;;4345323;32;20047;-81
2023/04/13 11:40:13;;;;;;;11.55;2.97;;;;;;;;;;4336251;33;20055;-82
2023/04/13 11:42:49;;;;;;;11.77;2.92;;;;;;;;;;4358030;32;20357;-80
2023/04/13 11:45:15;;;;;;;12.90;2.45;;;;;;;;;;4338207;33;20025;-81
2023/04/13 11:47:40;;;;;;;13.07;2.58;;;;;;;;;;4334305;33;20085;-82
2023/04/13 11:50:06;;;;;;;13.68;3.80;;;;;;;;;;4336324;33;20123;-81
2023/04/13 11:52:32;;;;;;;22.77;3.45;;;;;;;;;;4335738;33;20078;-81
2023/04/13 11:54:57;;;;;;;19.02;3.83;;;;;;;;;;4334357;33;20408;-83
2023/04/13 11:57:23;;;;;;;;;;;;;;;;;;4332269;33;20024;-81
2023/04/13 11:59:50;;;;;;;8.00;2.33;;;;;;;;;;4332970;33;19935;-81
2023/04/13 12:02:22;;;;;;;12.95;2.80;;;;;;;;;;4335444;33;20084;-82
2023/04/13 12:04:47;;;;;;;15.05;3.25;;;;;;;;;;4338208;33;20051;-81
2023/04/13 12:07:13;;;;;;;12.90;3.17;;;;;;;;;;4333101;33;20028;-81
2023/04/13 12:09:39;;;;;;;12.30;2.87;;;;;;;;;;4332893;33;20408;-81
2023/04/13 12:12:04;;;;;;;13.60;2.72;;;;;;;;;;4336527;33;20444;-80
2023/04/13 12:14:30;;;;;;;14.07;3.40;;;;;;;;;;4339093;33;20032;-80
2023/04/13 12:16:56;;;;;;;15.43;2.72;;;;;;;;;;4335229;33;20031;-80
2023/04/13 12:19:22;;;;;;;14.68;2.78;;;;;;;;;;4336179;33;20369;-80
2023/04/13 12:21:53;;;;;;;13.27;3.30;;;;;;;;;;4333905;33;20032;-80
2023/04/13 12:24:18;;;;;;;14.77;3.75;;;;;;;;;;4332235;33;20095;-80
2023/04/13 12:26:43;;;;;;;12.27;3.00;;;;;;;;;;4333454;33;20020;-80
2023/04/13 12:29:09;;;;;;;12.35;2.80;;;;;;;;;;4332543;33;20056;-81
2023/04/13 12:31:38;;;;;;;14.68;3.00;;;;;;;;;;4332418;33;20090;-81
2023/04/13 12:34:06;;;;;;;9.82;2.33;;;;;;;;;;4333613;33;20086;-81
2023/04/13 12:36:34;;;;;;;13.27;3.12;;;;;;;;;;4339355;33;20161;-81
2023/04/13 12:39:00;;;;;;;18.92;3.50;;;;;;;;;;4347620;33;20028;-81
2023/04/13 12:41:25;;;;;;;11.82;2.87;;;;;;;;;;4347766;33;20050;-81
2023/04/13 12:43:50;;;;;;;17.27;4.05;;;;;;;;;;4348404;33;20382;-80
2023/04/13 12:46:16;;;;;;;;;;;;;;;;;;4346572;32;20067;-81
2023/04/13 12:48:41;;;;;;;11.48;3.08;;;;;;;;;;4349549;33;19938;-80
2023/04/13 12:51:06;;;;;;;12.15;3.53;;;;;;;;;;4347228;33;20482;-81
2023/04/13 12:53:31;;;;;;;;;;;;;;;;;;4347495;33;20363;-82
2023/04/13 12:55:56;;;;;;;11.55;3.08;;;;;;;;;;4347245;33;19997;-81
2023/04/13 12:58:22;;;;;;;14.10;3.25;;;;;;;;;;4347382;33;20409;-80
2023/04/13 13:00:47;;;;;;;15.82;3.28;;;;;;;;;;4347418;33;20443;-80
2023/04/13 13:03:12;;;;;;;18.98;3.92;;;;;;;;;;4348722;33;20020;-81
2023/04/13 13:05:37;;;;;;;15.27;3.47;;;;;;;;;;4349433;33;20050;-81
2023/04/13 13:08:03;;;;;;;18.62;3.08;;;;;;;;;;4351335;33;20047;-82
2023/04/13 13:10:28;;;;;;;11.07;2.75;;;;;;;;;;4366323;33;20451;-83
2023/04/13 13:12:54;;;;;;;12.48;3.75;;;;;;;;;;4358384;33;20036;-82
2023/04/13 13:15:19;;;;;;;14.85;3.25;;;;;;;;;;4337251;33;20103;-85
2023/04/13 13:17:45;;;;;;;14.90;3.05;;;;;;;;;;4351631;33;20031;-81
2023/04/13 13:20:11;;;;;;;15.70;3.12;;;;;;;;;;4365152;32;20031;-77
2023/04/13 13:22:37;;;;;;;15.80;3.53;;;;;;;;;;4368426;32;20047;-82
2023/04/13 13:25:02;;;;;;;17.83;3.35;;;;;;;;;;4359128;32;20106;-83
2023/04/13 13:27:28;;;;;;;16.40;3.22;;;;;;;;;;4361967;33;20027;-82
2023/04/13 13:29:53;;;;;;;18.20;3.20;;;;;;;;;;4370711;32;20004;-82
2023/04/13 13:32:18;;;;;;;19.27;4.90;;;;;;;;;;4372322;32;20042;-82
2023/04/13 13:34:44;;;;;;;17.58;4.00;;;;;;;;;;4372005;32;20011;-82
2023/04/13 13:37:09;;;;;;;16.37;3.28;;;;;;;;;;4361473;32;20082;-82
2023/04/13 13:39:34;;;;;;;13.98;3.35;;;;;;;;;;4355733;33;20003;-83
2023/04/13 13:42:01;;;;;;;11.27;3.30;;;;;;;;;;4368025;32;20003;-82
2023/04/13 13:44:26;;;;;;;14.48;3.17;;;;;;;;;;4364805;32;20086;-81
2023/04/13 13:46:52;;;;;;;14.02;2.85;;;;;;;;;;4366253;32;20008;-81
2023/04/13 13:49:17;;;;;;;8.95;2.80;;;;;;;;;;4358432;33;20061;-81
2023/04/13 13:51:42;;;;;;;9.43;2.80;;;;;;;;;;4361002;33;20094;-81
2023/04/13 13:54:08;;;;;;;11.30;3.55;;;;;;;;;;4372619;32;20035;-81
2023/04/13 13:56:33;;;;;;;12.23;2.80;;;;;;;;;;4362272;32;20028;-83
2023/04/13 13:58:58;;;;;;;10.32;2.85;;;;;;;;;;4354355;33;20203;-85
2023/04/13 14:01:23;;;;;;;11.77;2.53;;;;;;;;;;4360945;32;20054;-84
2023/04/13 14:03:49;;;;;;;12.45;3.33;;;;;;;;;;4357158;33;20066;-83
2023/04/13 14:06:14;;;;;;;14.82;3.17;;;;;;;;;;4359871;33;20027;-82
2023/04/13 14:08:40;;;;;;;11.23;2.78;;;;;;;;;;4351156;33;20054;-83
2023/04/13 14:11:05;;;;;;;9.30;3.15;;;;;;;;;;4360165;33;20027;-82
2023/04/13 14:13:30;;;;;;;9.98;3.35;;;;;;;;;;4358023;32;20050;-81
2023/04/13 14:15:55;;;;;;;12.18;2.90;;;;;;;;;;4360130;32;20078;-83
2023/04/13 14:18:22;;;;;;;7.30;2.47;;;;;;;;;;4359157;33;20491;-82
2023/04/13 14:20:48;;;;;;;10.65;3.05;;;;;;;;;;4355719;32;20174;-82
2023/04/13 14:23:13;;;;;;;12.20;2.70;;;;;;;;;;4376264;32;20040;-83
2023/04/13 14:25:39;;;;;;;10.02;2.78;;;;;;;;;;4359498;33;20027;-81
2023/04/13 14:28:05;;;;;;;14.10;3.45;;;;;;;;;;4377597;32;20015;-83
2023/04/13 14:30:30;;;;;;;11.82;2.85;;;;;;;;;;4362911;32;20065;-83
2023/04/13 14:32:56;;;;;;;12.90;2.83;;;;;;;;;;4364293;32;20062;-82
2023/04/13 14:35:21;;;;;;;11.77;2.75;;;;;;;;;;4360874;32;20412;-82
2023/04/13 14:37:46;;;;;;;12.88;3.55;;;;;;;;;;4356627;32;20105;-82
2023/04/13 14:40:15;;;;;;;13.55;3.80;;;;;;;;;;4331834;33;20024;-83
2023/04/13 14:42:40;;;;;;;11.20;2.53;;;;;;;;;;4342210;32;20017;-83
2023/04/13 14:45:06;;;;;;;8.57;2.30;;;;;;;;;;4331837;33;20055;-82
2023/04/13 14:47:31;;;;;;;10.15;2.72;;;;;;;;;;4331211;33;20028;-82
2023/04/13 14:49:57;;;;;;;14.93;2.97;;;;;;;;;;4339827;33;20362;-82
2023/04/13 14:52:22;;;;;;;14.85;3.20;;;;;;;;;;4333904;33;20036;-83
2023/04/13 14:54:48;;;;;;;6.32;2.47;;;;;;;;;;4353951;33;20031;-83
2023/04/13 14:57:13;;;;;;;11.00;3.10;;;;;;;;;;4348559;33;20049;-83